Time;durP1;ratioP1;P1;durP2;ratioP2;P2;SDS_P1;SDS_P2;PMS_P1;PMS_P2;Temp;Humidity;BMP_temperature;BMP_pressure;BME280_temperature;BME280_humidity;BME280_pressure;Samples;Min_cycle;Max_cycle;Signal;HPM_P1;HPM_P2
2022/07/30 00:00:28;;;;;;;4.15;2.25;;;;;;;24.16;38.71;101000.75;5064317;28;20135;-71
2022/07/30 00:02:54;;;;;;;11.52;2.63;;;;;;;24.15;38.72;100999.91;5063807;28;20053;-72
2022/07/30 00:05:20;;;;;;;8.32;2.92;;;;;;;23.90;39.58;100995.38;5062372;28;20098;-71
2022/07/30 00:07:47;;;;;;;3.88;2.60;;;;;;;24.11;39.92;100994.97;5060225;28;20412;-71
2022/07/30 00:10:15;;;;;;;7.25;2.40;;;;;;;24.36;40.02;100990.59;5061521;28;20045;-71
2022/07/30 00:12:41;;;;;;;4.15;2.65;;;;;;;24.18;40.79;100991.53;5062365;28;20045;-70
2022/07/30 00:15:08;;;;;;;4.18;2.80;;;;;;;24.49;40.66;100999.03;5062106;28;20044;-70
2022/07/30 00:17:35;;;;;;;8.35;2.75;;;;;;;24.40;40.82;100994.63;5062795;28;20049;-71
2022/07/30 00:20:01;;;;;;;6.72;3.08;;;;;;;24.56;40.83;101000.06;5063161;28;20048;-70
2022/07/30 00:22:27;;;;;;;7.05;2.60;;;;;;;24.22;41.81;101016.16;5063918;28;20041;-70
2022/07/30 00:24:54;;;;;;;4.22;2.67;;;;;;;23.93;43.29;101016.50;5060913;28;20094;-70
2022/07/30 00:27:22;;;;;;;8.10;3.20;;;;;;;23.00;45.55;101021.56;5063167;28;20044;-70
2022/07/30 00:29:48;;;;;;;10.32;3.00;;;;;;;23.10;46.46;101017.81;5063185;28;20049;-70
2022/07/30 00:32:14;;;;;;;5.35;3.17;;;;;;;22.77;47.67;101021.16;5062729;28;20042;-70
2022/07/30 00:34:41;;;;;;;5.97;2.95;;;;;;;22.87;48.46;101016.63;5064724;28;20052;-70
2022/07/30 00:37:07;;;;;;;7.13;3.30;;;;;;;22.81;48.34;101011.84;5061154;28;20102;-70
2022/07/30 00:39:33;;;;;;;8.55;3.20;;;;;;;22.37;51.26;101013.50;5065659;28;20044;-71
2022/07/30 00:42:01;;;;;;;9.13;3.58;;;;;;;22.46;51.20;101001.94;5066669;28;20503;-70
2022/07/30 00:44:30;;;;;;;8.88;3.72;;;;;;;22.39;53.16;101006.19;5068375;28;20105;-70
2022/07/30 00:46:56;;;;;;;9.65;3.90;;;;;;;22.60;53.70;101008.59;5065738;28;20102;-70
2022/07/30 00:49:23;;;;;;;7.70;3.97;;;;;;;22.46;54.48;101004.59;5053004;28;20378;-70
2022/07/30 00:51:50;;;;;;;6.88;4.18;;;;;;;22.44;55.71;101009.22;5047614;28;20045;-70
2022/07/30 00:54:17;;;;;;;8.68;4.43;;;;;;;22.08;57.45;101010.97;5068849;28;20032;-70
2022/07/30 00:56:43;;;;;;;7.45;4.38;;;;;;;22.38;57.06;101009.00;5052251;28;20106;-71
2022/07/30 00:59:10;;;;;;;9.85;4.45;;;;;;;22.27;58.23;101016.22;5062646;28;20048;-71
2022/07/30 01:01:38;;;;;;;9.15;5.30;;;;;;;22.27;59.52;101020.72;5064966;28;20503;-71
2022/07/30 01:04:06;;;;;;;13.70;4.88;;;;;;;22.16;60.75;100999.53;5064537;28;20425;-71
2022/07/30 01:06:33;;;;;;;9.15;5.65;;;;;;;22.14;60.75;101007.69;5057181;28;20049;-71
2022/07/30 01:08:59;;;;;;;9.45;4.75;;;;;;;21.83;62.12;101022.25;5064937;28;20528;-71
2022/07/30 01:11:33;;;;;;;8.18;5.13;;;;;;;21.98;62.19;101018.16;5066588;28;20048;-71
2022/07/30 01:14:00;;;;;;;8.20;5.13;;;;;;;22.04;62.02;101024.75;5059221;28;20048;-71
2022/07/30 01:16:26;;;;;;;8.10;5.00;;;;;;;22.13;61.52;101029.22;5066195;28;20564;-67
2022/07/30 01:21:46;;;;;;;8.60;5.35;;;;;;;21.74;63.68;101031.13;5068060;28;20047;-67
2022/07/30 01:24:22;;;;;;;7.70;5.07;;;;;;;21.44;64.59;101023.28;5065832;28;20084;-66
2022/07/30 01:26:51;;;;;;;9.70;5.38;;;;;;;21.50;65.08;101022.75;5066846;28;20098;-67
2022/07/30 01:29:18;;;;;;;7.40;5.30;;;;;;;21.49;65.36;101026.38;5068676;28;20427;-67
2022/07/30 01:31:47;;;;;;;9.27;5.90;;;;;;;21.37;66.13;101015.03;5068096;28;20083;-67
2022/07/30 01:34:16;;;;;;;10.25;6.10;;;;;;;21.71;65.89;101026.91;5065872;28;20101;-67
2022/07/30 01:36:45;;;;;;;9.23;6.00;;;;;;;21.37;66.50;101020.34;5065525;28;20046;-67
2022/07/30 01:39:14;;;;;;;14.82;7.22;;;;;;;21.31;67.29;101021.78;5066083;28;20060;-69
2022/07/30 01:41:42;;;;;;;13.48;6.60;;;;;;;21.35;67.86;101025.84;5065897;28;20102;-69
2022/07/30 01:44:12;;;;;;;9.43;6.30;;;;;;;20.73;70.11;101028.03;5058008;28;20048;-69
2022/07/30 01:46:39;;;;;;;11.68;6.30;;;;;;;20.47;71.96;101026.84;5064525;28;20094;-69
2022/07/30 01:49:07;;;;;;;14.13;6.32;;;;;;;20.19;73.91;101018.56;5065250;28;20076;-69
2022/07/30 01:51:34;;;;;;;10.45;5.78;;;;;;;20.95;70.96;101025.13;5060803;28;20552;-69
2022/07/30 01:54:02;;;;;;;12.82;6.47;;;;;;;20.72;72.11;101032.50;5064664;28;20470;-69
2022/07/30 01:56:30;;;;;;;12.40;6.57;;;;;;;20.92;71.79;101036.03;5064372;28;20498;-69
2022/07/30 01:58:58;;;;;;;9.13;6.55;;;;;;;20.64;72.82;101032.34;5064455;28;20102;-69
2022/07/30 02:01:26;;;;;;;9.55;6.88;;;;;;;21.04;71.55;101028.75;5060709;28;20044;-69
2022/07/30 02:03:53;;;;;;;10.73;7.03;;;;;;;21.16;71.53;101031.19;5053469;28;20048;-69
2022/07/30 02:06:22;;;;;;;13.80;6.80;;;;;;;21.24;71.34;101033.16;5065449;28;20087;-69
2022/07/30 02:08:53;;;;;;;14.77;8.82;;;;;;;21.06;72.16;101032.13;5062367;28;20041;-69
2022/07/30 02:14:00;;;;;;;12.32;7.93;;;;;;;20.82;73.82;101024.53;5061190;28;20059;-69
2022/07/30 02:16:34;;;;;;;14.57;7.93;;;;;;;20.79;74.11;101027.47;5064006;28;20044;-68
2022/07/30 02:19:05;;;;;;;28.65;7.97;;;;;;;20.95;73.90;101030.44;5044615;28;20045;-68
2022/07/30 02:21:35;;;;;;;9.68;8.27;;;;;;;20.80;74.83;101029.16;5049220;28;20056;-69
2022/07/30 02:24:05;;;;;;;11.25;7.97;;;;;;;20.85;74.26;101027.75;5057535;28;20145;-69
2022/07/30 02:26:33;;;;;;;11.32;8.60;;;;;;;20.31;77.05;101033.50;5060653;28;20053;-69
2022/07/30 02:29:02;;;;;;;13.75;7.90;;;;;;;20.96;75.03;101034.78;5064041;28;20049;-69
2022/07/30 02:31:32;;;;;;;12.85;9.07;;;;;;;21.47;72.61;101029.19;5064739;28;20049;-69
2022/07/30 02:34:02;;;;;;;9.88;7.85;;;;;;;21.20;73.58;101031.75;5062753;28;20109;-70
2022/07/30 02:36:30;;;;;;;11.88;7.95;;;;;;;21.05;74.02;101033.09;5061549;28;20074;-69
2022/07/30 02:38:58;;;;;;;9.57;7.32;;;;;;;21.29;72.93;101038.88;5044568;28;20041;-69
2022/07/30 02:41:28;;;;;;;14.23;8.02;;;;;;;20.72;74.91;101042.31;5061951;28;20090;-69
2022/07/30 02:43:55;;;;;;;10.60;8.15;;;;;;;21.07;73.12;101042.63;5064817;28;20052;-70
2022/07/30 02:46:23;;;;;;;12.20;8.07;;;;;;;20.54;75.14;101041.28;5065193;28;20102;-69
2022/07/30 02:48:54;;;;;;;11.35;8.00;;;;;;;20.96;73.35;101050.75;5062605;28;20107;-70
2022/07/30 02:51:22;;;;;;;13.02;7.65;;;;;;;20.68;74.13;101048.91;5063690;28;20040;-70
2022/07/30 02:53:51;;;;;;;12.85;7.65;;;;;;;21.10;71.76;101033.53;5056218;28;20584;-69
2022/07/30 02:56:20;;;;;;;10.48;7.20;;;;;;;21.00;71.67;101036.19;5064378;28;20044;-69
2022/07/30 02:58:48;;;;;;;12.40;6.78;;;;;;;20.50;73.12;101045.19;5062722;28;20048;-68
2022/07/30 03:01:17;;;;;;;9.40;6.85;;;;;;;20.48;73.05;101049.81;5063016;28;20036;-68
2022/07/30 03:03:45;;;;;;;12.05;6.70;;;;;;;20.32;73.02;101051.16;5067052;28;20090;-70
2022/07/30 03:06:14;;;;;;;14.55;6.55;;;;;;;20.01;73.41;101053.91;5064898;28;20082;-71
2022/07/30 03:08:43;;;;;;;12.07;6.13;;;;;;;19.95;74.96;101057.13;5063332;28;20036;-70
2022/07/30 03:11:10;;;;;;;9.35;6.88;;;;;;;20.12;74.10;101057.34;5065166;28;20040;-72
2022/07/30 03:13:37;;;;;;;8.50;6.30;;;;;;;20.47;72.93;101053.47;5058559;28;20463;-72
2022/07/30 03:16:08;;;;;;;10.02;6.32;;;;;;;20.68;71.89;101057.75;5052538;28;20488;-72
2022/07/30 03:18:37;;;;;;;11.00;6.30;;;;;;;20.78;71.15;101058.59;5063928;28;20040;-72
2022/07/30 03:21:07;;;;;;;7.93;6.10;;;;;;;20.85;71.41;101059.72;5054598;28;20071;-72
2022/07/30 03:23:37;;;;;;;10.38;6.35;;;;;;;20.97;71.22;101060.47;5044820;28;20045;-71
2022/07/30 03:26:07;;;;;;;9.77;6.28;;;;;;;21.04;69.69;101055.41;5043717;28;20420;-71
2022/07/30 03:28:37;;;;;;;12.57;6.60;;;;;;;20.93;70.06;101056.38;5062213;28;20048;-71
2022/07/30 03:31:05;;;;;;;8.35;5.85;;;;;;;20.74;71.08;101056.34;5063049;28;20040;-71
2022/07/30 03:33:33;;;;;;;21.27;6.78;;;;;;;20.79;71.52;101054.97;5046280;28;20094;-71
2022/07/30 03:36:00;;;;;;;9.85;6.25;;;;;;;20.87;70.82;101057.78;5056770;28;20037;-71
2022/07/30 03:38:27;;;;;;;12.27;6.30;;;;;;;20.87;70.83;101064.94;5060313;28;20101;-71
2022/07/30 03:40:55;;;;;;;10.18;6.32;;;;;;;20.94;70.92;101062.56;5063052;28;20044;-71
2022/07/30 03:43:22;;;;;;;12.00;5.82;;;;;;;20.68;70.18;101070.22;5056024;28;20604;-71
2022/07/30 03:45:50;;;;;;;12.55;6.07;;;;;;;20.92;70.07;101069.84;5056010;28;20053;-71
2022/07/30 03:48:17;;;;;;;11.85;6.13;;;;;;;21.03;68.95;101067.91;5048483;28;20459;-72
2022/07/30 03:50:45;;;;;;;12.13;6.28;;;;;;;20.88;70.40;101074.59;5042586;28;20566;-72
2022/07/30 03:53:11;;;;;;;7.25;5.72;;;;;;;20.93;70.20;101077.72;5058635;28;20095;-72
2022/07/30 03:55:38;;;;;;;10.38;6.13;;;;;;;21.19;68.80;101083.38;5064093;28;20040;-72
2022/07/30 03:58:08;;;;;;;12.82;6.65;;;;;;;21.12;69.60;101080.44;5052809;28;20052;-72
2022/07/30 04:00:34;;;;;;;7.82;5.47;;;;;;;21.06;70.33;101080.97;5064587;28;20044;-73
2022/07/30 04:03:01;;;;;;;9.65;6.28;;;;;;;21.18;69.73;101077.22;5064324;28;20114;-72
2022/07/30 04:05:27;;;;;;;11.85;6.95;;;;;;;21.15;69.82;101077.50;5063193;28;20044;-73
2022/07/30 04:07:54;;;;;;;12.50;6.28;;;;;;;21.08;70.51;101075.47;5066134;28;20044;-73
2022/07/30 04:10:20;;;;;;;11.80;6.07;;;;;;;21.02;69.48;101081.38;5068721;28;20052;-73
2022/07/30 04:12:46;;;;;;;12.50;6.00;;;;;;;21.21;69.71;101081.44;5066207;28;20078;-73
2022/07/30 04:15:14;;;;;;;10.40;5.75;;;;;;;21.41;69.06;101083.13;5067081;28;20044;-74
2022/07/30 04:17:43;;;;;;;14.02;6.57;;;;;;;21.36;69.77;101086.19;5069370;28;20044;-74
2022/07/30 04:20:14;;;;;;;9.68;6.15;;;;;;;21.25;70.28;101094.34;5065961;28;20044;-74
2022/07/30 04:22:42;;;;;;;8.50;6.13;;;;;;;21.29;69.13;101095.75;5063008;28;20123;-74
2022/07/30 04:25:11;;;;;;;10.57;6.13;;;;;;;21.08;70.25;101100.31;5068200;28;20156;-75
2022/07/30 04:27:39;;;;;;;10.93;6.25;;;;;;;20.78;71.60;101095.91;5067898;28;20041;-74
2022/07/30 04:30:07;;;;;;;11.93;6.38;;;;;;;21.02;71.42;101087.56;5066676;28;20054;-74
2022/07/30 04:32:36;;;;;;;12.68;6.47;;;;;;;21.26;71.13;101100.50;5066277;28;20045;-74
2022/07/30 04:35:03;;;;;;;11.93;6.55;;;;;;;21.25;71.55;101099.66;5068802;28;20040;-74
2022/07/30 04:37:29;;;;;;;9.30;6.32;;;;;;;21.36;71.43;101104.88;5066385;28;20036;-74
2022/07/30 04:39:56;;;;;;;10.07;6.25;;;;;;;21.37;71.48;101108.38;5062012;28;20087;-74
2022/07/30 04:42:23;;;;;;;8.40;6.05;;;;;;;21.58;69.86;101116.28;5056755;28;20527;-74
2022/07/30 04:44:50;;;;;;;11.57;6.15;;;;;;;20.98;71.54;101107.47;5060114;28;20117;-74
2022/07/30 04:47:16;;;;;;;9.90;6.10;;;;;;;20.61;74.06;101122.38;5048824;28;20091;-74
2022/07/30 04:49:45;;;;;;;13.27;6.47;;;;;;;20.84;73.16;101113.19;5047932;28;20110;-73
2022/07/30 04:52:13;;;;;;;12.25;6.13;;;;;;;20.81;74.30;101110.78;5045539;28;20048;-71
2022/07/30 04:54:43;;;;;;;8.88;5.60;;;;;;;21.06;71.72;101104.13;5049744;28;20049;-71
2022/07/30 04:57:12;;;;;;;12.45;6.68;;;;;;;21.17;71.84;101091.53;5062598;28;20056;-71
2022/07/30 04:59:39;;;;;;;10.25;5.90;;;;;;;21.47;70.63;101087.06;5047156;28;20504;-71
2022/07/30 05:02:07;;;;;;;11.52;5.82;;;;;;;21.25;71.03;101104.16;5045657;28;20052;-71
2022/07/30 05:04:34;;;;;;;10.45;6.18;;;;;;;21.23;70.91;101096.31;5064576;28;20048;-72
2022/07/30 05:07:03;;;;;;;11.38;6.00;;;;;;;21.05;71.18;101097.94;5061894;28;20462;-72
2022/07/30 05:09:30;;;;;;;11.07;7.13;;;;;;;21.10;71.64;101102.88;5045308;28;20041;-72
2022/07/30 05:11:58;;;;;;;8.52;5.95;;;;;;;21.22;71.68;101101.78;5054489;28;20037;-72
2022/07/30 05:14:25;;;;;;;9.20;6.93;;;;;;;20.91;73.54;101111.66;5053009;28;20044;-71
2022/07/30 05:16:53;;;;;;;16.02;7.25;;;;;;;20.82;73.65;101105.31;5045823;28;20110;-71
2022/07/30 05:19:20;;;;;;;9.90;6.50;;;;;;;21.09;72.51;101111.84;5044763;28;20056;-71
2022/07/30 05:21:47;;;;;;;13.32;6.72;;;;;;;20.81;73.92;101111.63;5047938;28;20049;-71
2022/07/30 05:24:15;;;;;;;10.50;6.50;;;;;;;20.76;74.51;101113.03;5044224;28;20049;-71
2022/07/30 05:26:41;;;;;;;10.82;6.85;;;;;;;21.02;74.08;101103.56;5063645;28;20058;-71
2022/07/30 05:29:08;;;;;;;11.30;7.25;;;;;;;21.14;73.66;101098.94;5047401;28;20045;-71
2022/07/30 05:31:34;;;;;;;9.52;6.97;;;;;;;20.95;73.77;101097.09;5046360;28;20055;-73
2022/07/30 05:34:00;;;;;;;10.18;6.80;;;;;;;21.30;72.46;101096.59;5055594;28;20137;-72
2022/07/30 05:36:27;;;;;;;9.07;6.10;;;;;;;21.01;73.87;101091.19;5066278;28;20048;-72
2022/07/30 05:38:53;;;;;;;13.98;7.53;;;;;;;20.93;75.27;101099.03;5061073;28;20118;-72
2022/07/30 05:41:21;;;;;;;29.85;8.52;;;;;;;20.88;75.82;101111.91;5052872;28;20045;-72
2022/07/30 05:43:47;;;;;;;12.18;7.18;;;;;;;21.17;74.39;101110.22;5058646;28;20055;-72
2022/07/30 05:46:13;;;;;;;11.85;7.20;;;;;;;20.67;74.88;101119.16;5063418;28;20500;-72
2022/07/30 05:48:40;;;;;;;10.73;7.05;;;;;;;20.12;78.87;101129.22;5064509;28;20040;-72
2022/07/30 05:51:06;;;;;;;11.95;7.40;;;;;;;20.33;78.55;101126.56;5060445;28;20072;-73
2022/07/30 05:53:33;;;;;;;10.85;6.97;;;;;;;20.59;76.50;101126.97;5065272;28;20504;-74
2022/07/30 05:55:59;;;;;;;9.10;7.30;;;;;;;20.59;76.40;101127.81;5051311;28;20041;-73
2022/07/30 05:58:27;;;;;;;11.55;6.85;;;;;;;20.54;75.82;101138.06;5059317;28;20040;-73
2022/07/30 06:00:53;;;;;;;10.57;6.78;;;;;;;20.80;75.13;101130.44;5053653;28;20110;-72
2022/07/30 06:03:19;;;;;;;10.82;6.75;;;;;;;20.97;73.94;101121.78;5051844;28;20041;-72
2022/07/30 06:05:46;;;;;;;8.52;6.68;;;;;;;21.08;73.22;101116.31;5058256;28;20044;-72
2022/07/30 06:08:12;;;;;;;10.15;6.47;;;;;;;21.19;73.34;101105.56;5049942;28;20381;-73
2022/07/30 06:10:38;;;;;;;8.77;6.28;;;;;;;20.92;73.56;101102.66;5050888;28;20091;-72
2022/07/30 06:13:05;;;;;;;10.50;7.13;;;;;;;20.70;75.09;101082.41;5049535;28;20040;-71
2022/07/30 06:15:32;;;;;;;12.20;6.60;;;;;;;20.52;74.78;101086.69;5044065;28;20045;-71
2022/07/30 06:17:59;;;;;;;8.80;6.38;;;;;;;20.48;75.33;101089.75;5046505;28;20126;-71
2022/07/30 06:20:25;;;;;;;9.68;6.40;;;;;;;20.14;76.29;101090.00;5044680;28;20111;-71
2022/07/30 06:22:51;;;;;;;7.97;6.05;;;;;;;20.18;76.30;101082.59;5047751;28;20049;-71
2022/07/30 06:25:18;;;;;;;11.85;6.90;;;;;;;20.38;74.85;101098.56;5066481;28;20093;-72
2022/07/30 06:27:44;;;;;;;16.40;7.63;;;;;;;20.30;75.33;101100.22;5065067;28;20048;-72
2022/07/30 06:30:12;;;;;;;10.88;6.57;;;;;;;20.30;75.31;101097.53;5061883;28;20704;-72
2022/07/30 06:32:39;;;;;;;11.57;6.13;;;;;;;20.54;74.30;101108.75;5064811;28;20715;-72
2022/07/30 06:35:07;;;;;;;10.77;6.28;;;;;;;20.30;75.69;101129.50;5064429;28;20052;-72
2022/07/30 06:37:33;;;;;;;8.90;5.80;;;;;;;20.52;75.21;101160.44;5063770;28;20097;-72
2022/07/30 06:39:59;;;;;;;7.60;6.30;;;;;;;20.78;74.05;101186.53;5065293;28;20036;-72
2022/07/30 06:42:26;;;;;;;8.55;6.50;;;;;;;20.51;75.18;101212.06;5064373;28;20048;-72
2022/07/30 06:44:52;;;;;;;9.73;6.47;;;;;;;20.20;76.72;101227.94;5064117;28;20048;-71
2022/07/30 06:47:25;;;;;;;10.45;6.07;;;;;;;20.06;77.38;101209.63;5065446;28;20106;-71
2022/07/30 06:49:53;;;;;;;9.82;6.60;;;;;;;20.30;77.49;101185.41;5060831;28;20049;-71
2022/07/30 06:52:19;;;;;;;11.40;6.30;;;;;;;20.06;77.71;101161.72;5054792;28;20044;-71
2022/07/30 06:54:46;;;;;;;14.45;7.07;;;;;;;19.97;78.38;101151.81;5074576;28;20102;-71
2022/07/30 06:57:12;;;;;;;16.05;7.88;;;;;;;20.14;78.01;101140.59;5045933;28;20131;-71
2022/07/30 06:59:39;;;;;;;13.73;8.07;;;;;;;20.09;78.31;101142.81;5043273;28;20045;-72
2022/07/30 07:02:05;;;;;;;9.05;7.63;;;;;;;20.26;77.80;101134.22;5044790;28;20130;-72
2022/07/30 07:04:32;;;;;;;10.85;7.38;;;;;;;20.29;77.15;101144.63;5047476;28;20090;-72
2022/07/30 07:06:59;;;;;;;10.63;8.05;;;;;;;20.44;76.93;101147.78;5064341;28;20041;-72
2022/07/30 07:09:26;;;;;;;12.68;8.13;;;;;;;20.58;76.63;101142.13;5064068;28;20041;-72
2022/07/30 07:11:52;;;;;;;11.88;8.45;;;;;;;20.53;76.89;101124.84;5063470;28;20048;-72
2022/07/30 07:14:18;;;;;;;14.95;7.78;;;;;;;20.54;76.78;101131.88;5061847;28;20459;-72
2022/07/30 07:16:45;;;;;;;14.68;8.43;;;;;;;20.29;77.21;101139.31;5063761;28;20426;-72
2022/07/30 07:19:11;;;;;;;14.50;8.43;;;;;;;19.93;79.81;101137.94;5063210;28;20049;-72
2022/07/30 07:21:37;;;;;;;13.88;8.77;;;;;;;19.72;81.13;101131.75;5062393;28;20040;-73
2022/07/30 07:24:06;;;;;;;10.50;7.38;;;;;;;19.80;81.09;101129.31;5051678;28;20049;-73
2022/07/30 07:26:32;;;;;;;16.98;8.70;;;;;;;19.80;81.56;101139.09;5043892;28;20090;-73
2022/07/30 07:28:58;;;;;;;13.45;8.57;;;;;;;19.81;81.70;101123.00;5041416;28;20083;-72
2022/07/30 07:31:25;;;;;;;9.20;7.78;;;;;;;19.67;82.14;101125.97;5044178;28;20045;-72
2022/07/30 07:33:53;;;;;;;10.48;7.55;;;;;;;19.51;83.77;101124.72;5054181;28;20045;-72
2022/07/30 07:36:19;;;;;;;9.43;6.97;;;;;;;19.41;83.58;101130.78;5063542;28;20451;-72
2022/07/30 07:38:46;;;;;;;10.23;7.70;;;;;;;19.57;84.00;101124.22;5051148;28;20052;-72
2022/07/30 07:41:13;;;;;;;11.27;7.55;;;;;;;19.65;83.79;101114.63;5064171;28;20044;-72
2022/07/30 07:43:40;;;;;;;10.68;7.57;;;;;;;19.52;84.18;101111.28;5065990;28;20388;-73
2022/07/30 07:46:07;;;;;;;11.18;8.13;;;;;;;19.30;86.55;101090.91;5069924;28;20051;-73
2022/07/30 07:48:33;;;;;;;9.30;7.93;;;;;;;19.22;86.58;101080.06;5068166;28;20044;-74
2022/07/30 07:51:00;;;;;;;9.00;7.97;;;;;;;19.30;87.28;101082.09;5066247;28;20139;-72
2022/07/30 07:53:26;;;;;;;10.32;7.13;;;;;;;19.06;87.49;101073.47;5067400;28;20060;-72
2022/07/30 07:55:53;;;;;;;11.45;7.47;;;;;;;19.15;87.06;101072.72;5068786;28;20044;-72
2022/07/30 07:58:20;;;;;;;9.40;6.90;;;;;;;19.20;86.58;101074.03;5067951;28;20102;-72
2022/07/30 08:00:47;;;;;;;11.18;7.38;;;;;;;19.44;86.58;101087.13;5068377;28;20605;-73
2022/07/30 08:03:13;;;;;;;8.73;6.88;;;;;;;19.68;84.50;101103.72;5065362;28;20515;-73
2022/07/30 08:05:40;;;;;;;12.02;6.57;;;;;;;19.67;84.39;101107.34;5057379;28;20041;-74
2022/07/30 08:08:06;;;;;;;7.95;7.15;;;;;;;19.96;83.16;101120.84;5063972;28;20121;-74
2022/07/30 08:10:33;;;;;;;10.93;7.75;;;;;;;20.08;83.62;101130.47;5066951;28;20550;-73
2022/07/30 08:13:01;;;;;;;10.27;7.78;;;;;;;20.20;83.90;101128.56;5068163;28;20106;-73
2022/07/30 08:15:30;;;;;;;11.50;7.35;;;;;;;20.32;82.63;101133.72;5068486;28;21021;-73
2022/07/30 08:17:57;;;;;;;12.77;8.43;;;;;;;20.70;82.95;101126.88;5067944;28;20094;-73
2022/07/30 08:20:24;;;;;;;13.30;7.95;;;;;;;20.76;81.63;101134.34;5061587;28;20069;-71
2022/07/30 08:22:50;;;;;;;12.38;8.00;;;;;;;20.97;81.64;101135.09;5067424;28;20040;-72
2022/07/30 08:25:18;;;;;;;11.50;7.60;;;;;;;21.14;80.27;101138.94;5066305;28;20094;-73
2022/07/30 08:27:44;;;;;;;9.05;7.28;;;;;;;21.31;80.53;101143.63;5064102;28;20043;-69
2022/07/30 08:30:12;;;;;;;11.27;6.50;;;;;;;21.34;78.82;101135.34;5068147;28;20428;-69
2022/07/30 08:32:39;;;;;;;8.90;6.68;;;;;;;21.43;77.02;101133.69;5067237;28;20044;-69
2022/07/30 08:35:07;;;;;;;8.07;6.20;;;;;;;21.62;77.41;101131.00;5063326;28;20070;-69
2022/07/30 08:37:34;;;;;;;11.27;6.82;;;;;;;21.59;77.37;101128.63;5067475;28;20056;-68
2022/07/30 08:40:00;;;;;;;11.88;5.90;;;;;;;21.80;75.98;101132.81;5056497;28;20585;-69
2022/07/30 08:42:27;;;;;;;8.18;5.88;;;;;;;21.78;76.17;101140.13;5064904;28;20090;-69
2022/07/30 08:44:53;;;;;;;9.60;6.18;;;;;;;22.01;75.80;101139.88;5068510;28;20558;-69
2022/07/30 08:47:27;;;;;;;11.55;5.82;;;;;;;22.16;74.10;101139.28;5066462;28;20511;-69
2022/07/30 08:50:00;;;;;;;8.73;6.45;;;;;;;22.14;73.71;101146.56;5065553;28;20048;-69
2022/07/30 08:52:26;;;;;;;8.27;6.20;;;;;;;22.44;72.57;101150.00;5066445;28;20048;-69
2022/07/30 08:54:53;;;;;;;12.90;5.93;;;;;;;22.53;72.76;101147.31;5067274;28;20098;-69
2022/07/30 08:57:20;;;;;;;17.75;6.32;;;;;;;22.51;71.06;101154.63;5065692;28;20451;-69
2022/07/30 08:59:50;;;;;;;8.25;5.93;;;;;;;22.58;70.48;101163.75;5066481;28;20048;-69
2022/07/30 09:02:19;;;;;;;13.13;5.88;;;;;;;22.61;71.82;101168.81;5068607;28;20076;-69
2022/07/30 09:04:45;;;;;;;11.13;6.15;;;;;;;22.77;71.65;101170.88;5065413;28;20097;-68
2022/07/30 09:07:13;;;;;;;8.45;5.50;;;;;;;22.72;70.15;101173.16;5065969;28;20036;-68
2022/07/30 09:09:39;;;;;;;9.23;5.38;;;;;;;22.64;69.91;101173.88;5066573;28;20412;-69
2022/07/30 09:12:37;;;;;;;7.97;5.05;;;;;;;22.45;70.58;101173.94;5066157;28;20500;-69
2022/07/30 09:15:06;;;;;;;7.70;5.05;;;;;;;22.72;69.42;101171.34;5066232;28;20044;-69
2022/07/30 09:17:51;;;;;;;7.97;5.43;;;;;;;22.67;69.69;101183.41;5066310;28;20044;-68
2022/07/30 09:20:18;;;;;;;8.32;5.30;;;;;;;22.80;69.88;101179.44;5065236;28;20530;-68
2022/07/30 09:22:47;;;;;;;7.05;5.25;;;;;;;22.87;69.24;101187.75;5065346;28;20049;-69
2022/07/30 09:25:32;;;;;;;8.25;5.22;;;;;;;23.04;68.17;101189.63;5066556;28;20044;-69
2022/07/30 09:27:58;;;;;;;6.97;5.22;;;;;;;23.03;69.82;101195.94;5062374;28;20560;-69
2022/07/30 09:30:25;;;;;;;8.80;5.60;;;;;;;23.19;68.28;101190.81;5065345;28;20109;-69
2022/07/30 09:32:53;;;;;;;7.35;5.10;;;;;;;23.28;66.73;101189.91;5064753;28;20048;-69
2022/07/30 09:35:20;;;;;;;10.02;5.15;;;;;;;23.40;66.55;101181.66;5066654;28;20124;-69
2022/07/30 09:37:58;;;;;;;11.07;5.50;;;;;;;23.13;68.34;101199.41;5058286;28;20048;-69
2022/07/30 09:40:25;;;;;;;8.73;5.60;;;;;;;23.26;67.62;101189.22;5044124;28;20059;-69
2022/07/30 09:43:02;;;;;;;7.57;4.95;;;;;;;23.03;68.00;101187.94;5045649;28;20045;-68
2022/07/30 09:45:28;;;;;;;6.28;5.15;;;;;;;23.37;67.26;101190.00;5050944;28;20507;-69
2022/07/30 09:47:55;;;;;;;8.38;5.32;;;;;;;23.43;68.04;101202.81;5066655;28;20094;-69
2022/07/30 09:50:23;;;;;;;6.82;5.07;;;;;;;23.48;66.49;101192.50;5064342;28;20048;-68
2022/07/30 09:52:51;;;;;;;8.00;5.28;;;;;;;23.42;66.13;101187.75;5064550;28;20107;-68
2022/07/30 09:55:30;;;;;;;10.40;5.20;;;;;;;23.48;66.37;101192.50;5072221;28;20048;-68
2022/07/30 09:57:57;;;;;;;6.20;5.00;;;;;;;23.63;65.88;101190.97;5067033;28;20041;-68
2022/07/30 10:00:26;;;;;;;6.15;4.93;;;;;;;23.47;67.52;101193.47;5064825;28;20040;-68
2022/07/30 10:02:53;;;;;;;5.90;4.72;;;;;;;23.66;66.64;101196.00;5065373;28;20049;-68
2022/07/30 10:05:21;;;;;;;8.85;4.63;;;;;;;23.76;64.83;101191.44;5063285;28;20062;-69
2022/07/30 10:07:49;;;;;;;6.30;4.90;;;;;;;23.52;65.57;101197.41;5064521;28;20048;-69
2022/07/30 10:10:22;;;;;;;6.95;5.00;;;;;;;23.79;65.56;101191.13;5064692;28;20140;-69
2022/07/30 10:12:52;;;;;;;7.13;5.07;;;;;;;23.72;66.07;101200.78;5063798;28;20052;-69
2022/07/30 10:15:20;;;;;;;9.18;5.85;;;;;;;24.34;64.83;101198.97;5066316;28;20423;-69
2022/07/30 10:17:48;;;;;;;8.38;5.43;;;;;;;24.68;62.90;101200.69;5065299;28;20048;-68
2022/07/30 10:20:15;;;;;;;9.70;6.07;;;;;;;24.74;62.32;101199.22;5063024;28;20507;-68
2022/07/30 10:22:43;;;;;;;8.75;6.10;;;;;;;24.51;62.62;101203.44;5061704;28;20071;-70
2022/07/30 10:25:10;;;;;;;6.63;5.38;;;;;;;24.64;63.04;101198.50;5052179;28;20073;-71
2022/07/30 10:27:38;;;;;;;10.48;6.10;;;;;;;24.35;63.69;101201.50;5062914;28;20075;-71
2022/07/30 10:30:06;;;;;;;8.43;5.10;;;;;;;24.24;63.13;101199.09;5063192;28;20516;-70
2022/07/30 10:32:32;;;;;;;5.88;4.85;;;;;;;23.88;64.26;101200.91;5053388;28;20049;-71
2022/07/30 10:34:59;;;;;;;10.38;5.10;;;;;;;23.91;64.88;101199.78;5063384;28;20078;-71
2022/07/30 10:37:28;;;;;;;5.85;5.00;;;;;;;24.02;63.59;101197.69;5063624;28;20094;-71
2022/07/30 10:39:57;;;;;;;13.13;5.35;;;;;;;24.09;64.88;101197.94;5064463;28;20110;-70
2022/07/30 10:42:42;;;;;;;8.55;4.95;;;;;;;24.23;62.53;101205.44;5055736;28;20052;-70
2022/07/30 10:45:21;;;;;;;7.57;5.47;;;;;;;24.11;62.13;101198.59;5065771;28;20385;-70
2022/07/30 10:47:49;;;;;;;7.05;4.50;;;;;;;24.20;63.25;101211.09;5064903;28;20056;-70
2022/07/30 10:50:16;;;;;;;9.43;5.43;;;;;;;24.25;63.29;101203.44;5049227;28;20052;-70
2022/07/30 10:52:49;;;;;;;6.47;4.50;;;;;;;24.43;61.83;101208.72;5044201;28;20051;-71
2022/07/30 10:55:16;;;;;;;7.28;4.55;;;;;;;24.16;62.42;101210.59;5044885;28;20129;-71
2022/07/30 10:58:04;;;;;;;9.98;5.20;;;;;;;24.01;62.05;101204.06;5061507;28;20097;-71
2022/07/30 11:00:33;;;;;;;6.70;4.32;;;;;;;23.95;63.76;101218.03;5063566;28;20059;-71
2022/07/30 11:03:14;;;;;;;8.52;4.65;;;;;;;24.11;62.45;101212.00;5064871;28;20113;-71
2022/07/30 11:05:41;;;;;;;8.20;4.75;;;;;;;24.20;62.17;101214.59;5064039;28;20037;-71
2022/07/30 11:08:29;;;;;;;7.38;4.90;;;;;;;24.00;62.99;101213.06;5064567;28;20067;-70
2022/07/30 11:10:56;;;;;;;8.68;4.45;;;;;;;24.11;63.11;101212.84;5044599;28;20121;-70
2022/07/30 11:13:51;;;;;;;6.43;4.82;;;;;;;24.19;61.02;101217.47;5045365;28;20424;-70
2022/07/30 11:16:19;;;;;;;6.07;4.50;;;;;;;24.51;60.20;101211.47;5044474;28;20049;-70
2022/07/30 11:19:07;;;;;;;9.95;4.72;;;;;;;24.77;59.84;101215.00;5050411;28;20048;-70
2022/07/30 11:21:35;;;;;;;6.07;4.85;;;;;;;24.61;61.28;101209.56;5064075;28;20040;-70
2022/07/30 11:24:01;;;;;;;5.55;4.22;;;;;;;24.59;61.62;101215.06;5064456;28;20040;-71
2022/07/30 11:26:50;;;;;;;8.63;4.30;;;;;;;24.65;59.30;101216.25;5062777;28;20090;-71
2022/07/30 11:29:37;;;;;;;11.63;4.50;;;;;;;24.50;59.55;101217.84;5064250;28;20046;-71
2022/07/30 11:32:27;;;;;;;8.10;4.28;;;;;;;24.41;60.34;101214.28;5063565;28;20048;-70